Johnny James — WYT8450 — position and weather

sailwx.info

Track history (hours):
 
Tides and Currents Weather Stations Pressure Air Temp Water Temp Dewpoint Dewpoint Depression Visibility Wind Speed Wind Dir Waves Ship Positions

Johnny James

Owner: CALLAIS & SONS INC, CUT OFF, LA. More information available from US FCC via Universal Licensing System and Coast Guard Vessel Documentation Center.

Last reported at 2015-Jul-28 23:10 UTC. Time now 2015-Jul-29 04:52 UTC.
Position N 29°45' W 095°06'.

Length 20 m.

Type: Towing. MMSI: 367005220.

Date/timePositionNaut miles runAvg speedWind from/ knotsBaromVisibWave heightAir tempDewpointWater temp
2015-Jul-28 23:10N 29°45' W 095°06'0 0.1
2015-Jul-28 22:29N 29°46' W 095°06'0 0.0
2015-Jul-28 21:17N 29°46' W 095°06'0 0.0
2015-Jul-28 17:13N 29°45' W 095°06'1 0.5
2015-Jul-28 16:15N 29°46' W 095°05'0 0.6
2015-Jul-28 15:33N 29°46' W 095°06'0 0.3
2015-Jul-28 14:23N 29°46' W 095°06'0 0.0
2015-Jul-28 13:27N 29°46' W 095°06'0 0.0
2015-Jul-28 03:18N 29°45' W 095°06'0 0.1
2015-Jul-28 02:33N 29°46' W 095°06'0 0.0
2015-Jul-27 06:32N 29°45' W 095°06'0 0.0
2015-Jul-27 04:27N 29°45' W 095°06'0 0.0
2015-Jul-26 23:33N 29°45' W 095°06'0 0.0
2015-Jul-26 22:33N 29°45' W 095°06'0 0.0
2015-Jul-26 21:31N 29°45' W 095°06'0 0.0
2015-Jul-26 18:11N 29°45' W 095°06'0 0.0
2015-Jul-26 13:27N 29°46' W 095°06'0 0.1
2015-Jul-26 11:13N 29°45' W 095°06'0 0.0
2015-Jul-26 05:25N 29°45' W 095°06'0 0.0
2015-Jul-26 02:05N 29°45' W 095°06'0 0.0
2015-Jul-25 23:12N 29°45' W 095°06'0 0.0
2015-Jul-25 10:07N 29°45' W 095°06'0 0.2
2015-Jul-25 09:33N 29°45' W 095°06'1 0.9
2015-Jul-25 08:33N 29°45' W 095°06'0 0.1
2015-Jul-25 07:08N 29°45' W 095°06'0 0.0
2015-Jul-25 06:33N 29°45' W 095°06'0 0.0
2015-Jul-25 05:27N 29°45' W 095°06'0 0.0
2015-Jul-25 04:33N 29°45' W 095°06'0 0.0
2015-Jul-25 03:32N 29°45' W 095°06'0 0.0
2015-Jul-25 02:33N 29°45' W 095°06'0 0.0
2015-Jul-25 01:33N 29°45' W 095°06'0 0.0
2015-Jul-25 00:33N 29°45' W 095°06'0 0.0
2015-Jul-24 23:33N 29°45' W 095°06'0 0.0
2015-Jul-24 22:33N 29°45' W 095°06'0 0.0
2015-Jul-24 21:33N 29°45' W 095°06'0 0.0
2015-Jul-24 11:32N 29°45' W 095°06'2 1.9
2015-Jul-24 10:31N 29°46' W 095°04'3 3.2
2015-Jul-24 09:33N 29°44' W 095°01'0 0.0
2015-Jul-24 08:33N 29°44' W 095°01'0 0.0
2015-Jul-24 07:32N 29°44' W 095°01'0 0.0
2015-Jul-23 21:08N 29°44' W 095°01'0 0.0
2015-Jul-23 20:33N 29°44' W 095°01'0 0.0
2015-Jul-23 19:33N 29°44' W 095°01'0 0.0
2015-Jul-23 18:33N 29°44' W 095°01'0 0.0
2015-Jul-23 17:33N 29°44' W 095°01'0 0.1
2015-Jul-23 16:34N 29°44' W 095°01'2 2.5
2015-Jul-23 15:33N 29°45' W 095°04'2 2.5
2015-Jul-23 14:34N 29°44' W 095°01'0 0.0
2015-Jul-23 13:33N 29°44' W 095°01'0 0.0
2015-Jul-23 12:33N 29°44' W 095°01'0 0.0
2015-Jul-23 11:33N 29°44' W 095°01'0 0.0
2015-Jul-23 10:33N 29°44' W 095°01'0 0.0
2015-Jul-23 09:33N 29°44' W 095°01'0 0.4
2015-Jul-23 08:32N 29°44' W 095°02'4 3.6
2015-Jul-23 07:26N 29°46' W 095°06'0 0.0
2015-Jul-23 06:28N 29°46' W 095°06'4 4.7
2015-Jul-23 05:34N 29°44' W 095°01'0 0.0
2015-Jul-23 04:33N 29°44' W 095°01'0 0.0
2015-Jul-23 03:34N 29°44' W 095°01'0 0.0
2015-Jul-23 02:32N 29°44' W 095°01'0 0.0
2015-Jul-23 01:32N 29°44' W 095°01'0 0.0
2015-Jul-23 00:32N 29°44' W 095°01'0 0.0
2015-Jul-22 23:33N 29°44' W 095°01'0 0.0
2015-Jul-22 22:32N 29°44' W 095°01'0 0.0
2015-Jul-22 21:32N 29°44' W 095°01'0 0.0
2015-Jul-22 20:31N 29°44' W 095°01'0 0.0
2015-Jul-22 19:30N 29°44' W 095°01'0 0.0
2015-Jul-22 18:33N 29°44' W 095°01'0 0.0
2015-Jul-22 17:33N 29°44' W 095°01'0 0.0
2015-Jul-22 16:30N 29°44' W 095°01'0 0.0
2015-Jul-22 15:33N 29°44' W 095°01'0 0.0
2015-Jul-22 14:33N 29°44' W 095°01'0 0.0
2015-Jul-22 13:33N 29°44' W 095°01'0 0.1
2015-Jul-22 12:33N 29°44' W 095°01'0 0.0
2015-Jul-22 11:33N 29°44' W 095°01'0 0.0
2015-Jul-22 10:33N 29°44' W 095°01'0 0.0
2015-Jul-22 09:32N 29°44' W 095°01'0 0.0
2015-Jul-22 08:33N 29°44' W 095°01'0 0.0
2015-Jul-22 07:33N 29°44' W 095°01'1 0.8
2015-Jul-22 06:33N 29°44' W 095°02'3 3.3
2015-Jul-22 05:33N 29°45' W 095°06'0 0.0
2015-Jul-21 22:22N 29°45' W 095°06'0 0.0
2015-Jul-21 20:11N 29°45' W 095°06'0 0.0
2015-Jul-21 19:17N 29°45' W 095°06'0 0.0
2015-Jul-21 06:09N 29°45' W 095°06'1 0.6
2015-Jul-21 04:18N 29°46' W 095°07'1 1.3
2015-Jul-21 03:27N 29°46' W 095°06'2 0.1
2015-Jul-20 15:31N 29°47' W 095°05'1 1.3
2015-Jul-20 14:32N 29°46' W 095°06'0 0.0
2015-Jul-19 19:13N 29°45' W 095°06'0 0.0
2015-Jul-19 16:30N 29°45' W 095°06'0 0.0
2015-Jul-19 14:33N 29°45' W 095°06'0 0.0
2015-Jul-19 10:25N 29°45' W 095°06'0 0.0
2015-Jul-19 08:30N 29°45' W 095°06'0 0.0
2015-Jul-19 06:15N 29°45' W 095°06'0 0.0
2015-Jul-19 04:27N 29°45' W 095°06'0 0.0
2015-Jul-19 00:30N 29°45' W 095°06'  
Track history (hours):
 
Tides and Currents Weather Stations Pressure Air Temp Water Temp Dewpoint Dewpoint Depression Visibility Wind Speed Wind Dir Waves Ship Positions

Johnny James

Owner: CALLAIS & SONS INC, CUT OFF, LA. More information available from US FCC via Universal Licensing System and Coast Guard Vessel Documentation Center.

Last reported at 2015-Jul-28 23:10 UTC. Time now 2015-Jul-29 04:52 UTC.
Position N 29°45' W 095°06'.

Length 20 m.

Type: Towing. MMSI: 367005220.

Date/timePositionNaut miles runAvg speedWind from/ knotsBaromVisibWave heightAir tempDewpointWater temp
2015-Jul-28 23:10N 29°45' W 095°06'0 0.1
2015-Jul-28 22:29N 29°46' W 095°06'0 0.0
2015-Jul-28 21:17N 29°46' W 095°06'0 0.0
2015-Jul-28 17:13N 29°45' W 095°06'1 0.5
2015-Jul-28 16:15N 29°46' W 095°05'0 0.6
2015-Jul-28 15:33N 29°46' W 095°06'0 0.3
2015-Jul-28 14:23N 29°46' W 095°06'0 0.0
2015-Jul-28 13:27N 29°46' W 095°06'0 0.0
2015-Jul-28 03:18N 29°45' W 095°06'0 0.1
2015-Jul-28 02:33N 29°46' W 095°06'0 0.0
2015-Jul-27 06:32N 29°45' W 095°06'0 0.0
2015-Jul-27 04:27N 29°45' W 095°06'0 0.0
2015-Jul-26 23:33N 29°45' W 095°06'0 0.0
2015-Jul-26 22:33N 29°45' W 095°06'0 0.0
2015-Jul-26 21:31N 29°45' W 095°06'0 0.0
2015-Jul-26 18:11N 29°45' W 095°06'0 0.0
2015-Jul-26 13:27N 29°46' W 095°06'0 0.1
2015-Jul-26 11:13N 29°45' W 095°06'0 0.0
2015-Jul-26 05:25N 29°45' W 095°06'0 0.0
2015-Jul-26 02:05N 29°45' W 095°06'0 0.0
2015-Jul-25 23:12N 29°45' W 095°06'0 0.0
2015-Jul-25 10:07N 29°45' W 095°06'0 0.2
2015-Jul-25 09:33N 29°45' W 095°06'1 0.9
2015-Jul-25 08:33N 29°45' W 095°06'0 0.1
2015-Jul-25 07:08N 29°45' W 095°06'0 0.0
2015-Jul-25 06:33N 29°45' W 095°06'0 0.0
2015-Jul-25 05:27N 29°45' W 095°06'0 0.0
2015-Jul-25 04:33N 29°45' W 095°06'0 0.0
2015-Jul-25 03:32N 29°45' W 095°06'0 0.0
2015-Jul-25 02:33N 29°45' W 095°06'0 0.0
2015-Jul-25 01:33N 29°45' W 095°06'0 0.0
2015-Jul-25 00:33N 29°45' W 095°06'0 0.0
2015-Jul-24 23:33N 29°45' W 095°06'0 0.0
2015-Jul-24 22:33N 29°45' W 095°06'0 0.0
2015-Jul-24 21:33N 29°45' W 095°06'0 0.0
2015-Jul-24 11:32N 29°45' W 095°06'2 1.9
2015-Jul-24 10:31N 29°46' W 095°04'3 3.2
2015-Jul-24 09:33N 29°44' W 095°01'0 0.0
2015-Jul-24 08:33N 29°44' W 095°01'0 0.0
2015-Jul-24 07:32N 29°44' W 095°01'0 0.0
2015-Jul-23 21:08N 29°44' W 095°01'0 0.0
2015-Jul-23 20:33N 29°44' W 095°01'0 0.0
2015-Jul-23 19:33N 29°44' W 095°01'0 0.0
2015-Jul-23 18:33N 29°44' W 095°01'0 0.0
2015-Jul-23 17:33N 29°44' W 095°01'0 0.1
2015-Jul-23 16:34N 29°44' W 095°01'2 2.5
2015-Jul-23 15:33N 29°45' W 095°04'2 2.5
2015-Jul-23 14:34N 29°44' W 095°01'0 0.0
2015-Jul-23 13:33N 29°44' W 095°01'0 0.0
2015-Jul-23 12:33N 29°44' W 095°01'0 0.0
2015-Jul-23 11:33N 29°44' W 095°01'0 0.0
2015-Jul-23 10:33N 29°44' W 095°01'0 0.0
2015-Jul-23 09:33N 29°44' W 095°01'0 0.4
2015-Jul-23 08:32N 29°44' W 095°02'4 3.6
2015-Jul-23 07:26N 29°46' W 095°06'0 0.0
2015-Jul-23 06:28N 29°46' W 095°06'4 4.7
2015-Jul-23 05:34N 29°44' W 095°01'0 0.0
2015-Jul-23 04:33N 29°44' W 095°01'0 0.0
2015-Jul-23 03:34N 29°44' W 095°01'0 0.0
2015-Jul-23 02:32N 29°44' W 095°01'0 0.0
2015-Jul-23 01:32N 29°44' W 095°01'0 0.0
2015-Jul-23 00:32N 29°44' W 095°01'0 0.0
2015-Jul-22 23:33N 29°44' W 095°01'0 0.0
2015-Jul-22 22:32N 29°44' W 095°01'0 0.0
2015-Jul-22 21:32N 29°44' W 095°01'0 0.0
2015-Jul-22 20:31N 29°44' W 095°01'0 0.0
2015-Jul-22 19:30N 29°44' W 095°01'0 0.0
2015-Jul-22 18:33N 29°44' W 095°01'0 0.0
2015-Jul-22 17:33N 29°44' W 095°01'0 0.0
2015-Jul-22 16:30N 29°44' W 095°01'0 0.0
2015-Jul-22 15:33N 29°44' W 095°01'0 0.0
2015-Jul-22 14:33N 29°44' W 095°01'0 0.0
2015-Jul-22 13:33N 29°44' W 095°01'0 0.1
2015-Jul-22 12:33N 29°44' W 095°01'0 0.0
2015-Jul-22 11:33N 29°44' W 095°01'0 0.0
2015-Jul-22 10:33N 29°44' W 095°01'0 0.0
2015-Jul-22 09:32N 29°44' W 095°01'0 0.0
2015-Jul-22 08:33N 29°44' W 095°01'0 0.0
2015-Jul-22 07:33N 29°44' W 095°01'1 0.8
2015-Jul-22 06:33N 29°44' W 095°02'3 3.3
2015-Jul-22 05:33N 29°45' W 095°06'0 0.0
2015-Jul-21 22:22N 29°45' W 095°06'0 0.0
2015-Jul-21 20:11N 29°45' W 095°06'0 0.0
2015-Jul-21 19:17N 29°45' W 095°06'0 0.0
2015-Jul-21 06:09N 29°45' W 095°06'1 0.6
2015-Jul-21 04:18N 29°46' W 095°07'1 1.3
2015-Jul-21 03:27N 29°46' W 095°06'2 0.1
2015-Jul-20 15:31N 29°47' W 095°05'1 1.3
2015-Jul-20 14:32N 29°46' W 095°06'0 0.0
2015-Jul-19 19:13N 29°45' W 095°06'0 0.0
2015-Jul-19 16:30N 29°45' W 095°06'0 0.0
2015-Jul-19 14:33N 29°45' W 095°06'0 0.0
2015-Jul-19 10:25N 29°45' W 095°06'0 0.0
2015-Jul-19 08:30N 29°45' W 095°06'0 0.0
2015-Jul-19 06:15N 29°45' W 095°06'0 0.0
2015-Jul-19 04:27N 29°45' W 095°06'0 0.0
2015-Jul-19 00:30N 29°45' W 095°06'  

Dump ship's entire track history